EEN weather

Dillant Hopkins Airport
Keene, New Hampshire, United States

Public forecast

Using degrees Fahrenheit for public forecast. Weather courtesy of forecast.io.

METAR (pilot weather report)

Retrieved 2019/05/25 19:56 UTC (35 minutes ago):

KEEN 251956Z AUTO 19009KT 10SM CLR 22/07 A3008 RMK AO2 SLP190 T02220067 PNO $

TAF (pilot weather forecast)

Closest forecast is Manchester-Boston Regional Airport, 36.8 nm (68.1 km) E. Retrieved 2019/05/25 18:21 UTC (2 hours ago):

TAF KMHT 251720Z 2518/2618 VRB04KT P6SM SCT120 BKN250 FM260000 17010KT P6SM -SHRA SCT050 BKN080 FM260300 18010KT P6SM SCT030 BKN050 OVC070 FM260600 19012KT P6SM -SHRA BKN025 OVC040 FM261400 27012KT P6SM SCT035 SCT060